createdAt,value
2022-12-20T00:02:10.432Z,78.95
2022-12-20T00:04:40.944Z,78.91
2022-12-20T00:07:10.879Z,79.31
2022-12-20T00:09:39.954Z,79.14
2022-12-20T00:12:08.945Z,79.16
2022-12-20T00:14:37.954Z,79.29
2022-12-20T00:17:07.452Z,79.43
2022-12-20T00:19:39.371Z,79.45
2022-12-20T00:22:08.400Z,79.37
2022-12-20T00:24:38.679Z,79.48
2022-12-20T00:27:07.747Z,79.57
2022-12-20T00:29:37.663Z,79.46
2022-12-20T00:32:06.895Z,79.72
2022-12-20T00:34:36.135Z,79.63
2022-12-20T00:37:05.337Z,79.91
2022-12-20T00:39:34.324Z,79.74
2022-12-20T00:42:03.247Z,79.51
2022-12-20T00:45:47.612Z,79.76
2022-12-20T00:48:18.275Z,79.73
2022-12-20T00:50:47.877Z,79.96
2022-12-20T00:53:21.148Z,79.74
2022-12-20T00:55:56.712Z,79.87
2022-12-20T00:58:27.458Z,80.13
2022-12-20T01:00:57.320Z,80.21
2022-12-20T01:03:27.593Z,79.90
2022-12-20T01:06:02.400Z,80.08
2022-12-20T01:08:33.104Z,80.11
2022-12-20T01:11:08.324Z,80.14
2022-12-20T01:13:40.165Z,80.21
2022-12-20T01:16:21.102Z,80.01
2022-12-20T01:18:51.965Z,80.34
2022-12-20T01:21:23.548Z,80.15
2022-12-20T01:23:52.750Z,80.16
2022-12-20T01:26:25.450Z,80.23
2022-12-20T01:28:57.944Z,80.18
2022-12-20T01:31:29.376Z,80.47
2022-12-20T01:34:01.266Z,80.49
2022-12-20T01:36:35.778Z,80.47
2022-12-20T01:39:09.354Z,80.56
2022-12-20T01:41:40.039Z,80.68
2022-12-20T01:44:35.488Z,80.87
2022-12-20T01:47:04.949Z,80.99
2022-12-20T01:49:43.639Z,80.94
2022-12-20T01:52:21.232Z,80.86
2022-12-20T01:55:11.307Z,81.22
2022-12-20T01:57:52.133Z,81.11
2022-12-20T02:00:21.788Z,81.13
2022-12-20T02:02:51.330Z,81.25
2022-12-20T02:05:24.175Z,81.20
2022-12-20T02:07:57.018Z,81.20
2022-12-20T02:10:50.899Z,81.10
2022-12-20T02:14:02.906Z,80.89
2022-12-20T02:16:39.175Z,81.01
2022-12-20T02:19:37.709Z,81.18
2022-12-20T02:22:28.587Z,81.02
2022-12-20T02:25:38.957Z,81.26
2022-12-20T02:28:37.113Z,81.16
2022-12-20T02:31:12.364Z,81.06
2022-12-20T02:33:50.993Z,81.32
2022-12-20T02:36:20.207Z,81.48
2022-12-20T02:38:51.655Z,81.55
2022-12-20T02:41:32.948Z,81.53
2022-12-20T02:44:50.454Z,81.77
2022-12-20T02:47:25.712Z,81.78
2022-12-20T02:49:59.413Z,81.84
2022-12-20T02:52:31.581Z,81.64
2022-12-20T02:55:01.803Z,81.78
2022-12-20T02:57:46.176Z,81.89
2022-12-20T03:00:19.900Z,82.24
2022-12-20T03:03:10.495Z,81.97
2022-12-20T03:05:47.536Z,82.08
2022-12-20T03:08:19.811Z,81.96
2022-12-20T03:10:49.213Z,82.25
2022-12-20T03:13:20.786Z,82.40
2022-12-20T03:15:54.095Z,82.34
2022-12-20T03:18:23.293Z,82.34
2022-12-20T03:20:55.203Z,82.43
2022-12-20T03:23:25.698Z,82.49
2022-12-20T03:25:54.973Z,82.14
2022-12-20T03:28:46.677Z,82.29
2022-12-20T03:31:22.405Z,82.29
2022-12-20T03:33:54.040Z,82.42
2022-12-20T03:36:24.547Z,82.56
2022-12-20T03:38:58.986Z,82.57
2022-12-20T03:41:29.994Z,82.33
2022-12-20T03:48:32.680Z,82.56
2022-12-20T03:51:04.377Z,82.57
2022-12-20T03:53:34.104Z,82.61
2022-12-20T03:56:05.680Z,82.50
2022-12-20T03:58:35.900Z,82.72
2022-12-20T04:01:19.656Z,82.79
2022-12-20T04:03:49.362Z,82.83
2022-12-20T04:06:21.415Z,82.83
2022-12-20T04:08:50.875Z,83.16
2022-12-20T04:11:25.885Z,83.16
2022-12-20T04:14:04.913Z,83.18
2022-12-20T04:16:36.121Z,83.11
2022-12-20T04:19:06.488Z,82.84
2022-12-20T04:21:43.241Z,83.14
2022-12-20T04:24:13.549Z,83.14
2022-12-20T04:26:50.042Z,82.99
2022-12-20T04:29:19.190Z,83.18
2022-12-20T04:31:48.988Z,83.40
2022-12-20T04:34:18.212Z,83.29
2022-12-20T04:36:47.195Z,83.39
2022-12-20T04:39:23.692Z,83.46
2022-12-20T04:42:10.222Z,83.15
2022-12-20T04:45:54.787Z,83.37
2022-12-20T04:48:56.378Z,83.46
2022-12-20T04:51:22.250Z,83.79
2022-12-20T04:53:55.585Z,83.54
2022-12-20T04:56:35.706Z,83.27
2022-12-20T04:59:11.937Z,83.61
2022-12-20T05:01:42.721Z,83.53
2022-12-20T05:04:16.893Z,83.67
2022-12-20T05:06:46.879Z,83.87
2022-12-20T05:09:16.279Z,83.87
2022-12-20T05:11:47.803Z,83.83
2022-12-20T05:14:16.958Z,83.99
2022-12-20T05:16:46.109Z,83.98
2022-12-20T05:19:17.145Z,84.13
2022-12-20T05:22:06.363Z,83.84
2022-12-20T05:24:56.585Z,83.99
2022-12-20T05:27:35.245Z,84.08
2022-12-20T05:30:11.800Z,83.98
2022-12-20T05:32:46.027Z,84.07
2022-12-20T05:35:15.361Z,83.87
2022-12-20T05:37:45.837Z,84.14
2022-12-20T05:40:19.667Z,84.06
2022-12-20T05:43:15.961Z,83.95
2022-12-20T05:45:51.627Z,84.03
2022-12-20T05:48:25.885Z,84.05
2022-12-20T05:50:55.387Z,84.00
2022-12-20T05:53:30.832Z,83.99
2022-12-20T05:56:04.199Z,84.00
2022-12-20T05:58:37.323Z,84.09
2022-12-20T06:01:10.285Z,84.20
2022-12-20T06:03:41.311Z,84.02
2022-12-20T06:06:18.742Z,84.03
2022-12-20T06:08:50.701Z,84.18
2022-12-20T06:11:34.544Z,84.23
2022-12-20T06:14:11.051Z,84.06
2022-12-20T06:16:47.209Z,84.37
2022-12-20T06:19:21.819Z,84.15
2022-12-20T06:21:55.614Z,84.30
2022-12-20T06:24:36.109Z,84.14
2022-12-20T06:27:07.416Z,84.20
2022-12-20T06:29:38.275Z,84.27
2022-12-20T06:32:11.986Z,84.13
2022-12-20T06:34:43.509Z,84.23
2022-12-20T06:37:16.308Z,84.31
2022-12-20T06:39:47.206Z,84.40
2022-12-20T07:14:02.139Z,84.42
2022-12-20T07:16:32.627Z,84.40
2022-12-20T07:19:02.900Z,84.66
2022-12-20T07:21:34.440Z,84.35
2022-12-20T07:24:05.045Z,84.48
2022-12-20T07:26:34.109Z,84.56
2022-12-20T07:29:11.869Z,84.56
2022-12-20T07:31:44.626Z,84.65
2022-12-20T07:34:14.303Z,84.72
2022-12-20T07:36:45.168Z,84.49
2022-12-20T07:39:14.578Z,84.68
2022-12-20T07:41:45.411Z,84.58
2022-12-20T07:48:54.633Z,84.67
2022-12-20T07:51:53.507Z,84.51
2022-12-20T07:54:34.132Z,84.61
2022-12-20T07:57:14.736Z,84.65
2022-12-20T07:59:51.624Z,84.61
2022-12-20T08:02:34.979Z,84.50
2022-12-20T08:05:14.584Z,84.55
2022-12-20T08:07:47.221Z,84.41
2022-12-20T08:10:20.326Z,84.47
2022-12-20T08:12:51.900Z,84.44
2022-12-20T08:15:23.442Z,84.40
2022-12-20T08:17:53.991Z,84.41
2022-12-20T08:20:23.626Z,84.49
2022-12-20T08:22:56.796Z,84.68
2022-12-20T08:25:34.547Z,84.65
2022-12-20T08:28:10.407Z,84.63
2022-12-20T08:30:40.911Z,84.66
2022-12-20T08:33:10.417Z,84.55
2022-12-20T08:35:39.950Z,84.59
2022-12-20T08:38:09.409Z,84.56
2022-12-20T08:40:39.972Z,84.64
2022-12-20T08:47:30.579Z,84.59
2022-12-20T08:49:59.830Z,84.71
2022-12-20T08:52:30.092Z,84.61
2022-12-20T08:55:01.487Z,84.56
2022-12-20T08:57:31.280Z,84.75
2022-12-20T09:00:00.378Z,84.79
2022-12-20T09:02:30.104Z,84.77
2022-12-20T09:04:59.514Z,84.63
2022-12-20T09:07:29.291Z,84.61
2022-12-20T09:09:58.497Z,84.76
2022-12-20T09:12:27.753Z,84.77
2022-12-20T09:14:56.974Z,84.67
2022-12-20T09:17:26.295Z,84.65
2022-12-20T09:19:55.646Z,84.64
2022-12-20T09:22:24.828Z,84.71
2022-12-20T09:24:53.999Z,84.61
2022-12-20T09:27:23.470Z,84.53
2022-12-20T09:29:52.594Z,84.74
2022-12-20T09:32:21.620Z,84.75
2022-12-20T09:34:50.609Z,84.67
2022-12-20T09:37:44.987Z,84.73
2022-12-20T09:40:22.635Z,84.66
2022-12-20T09:47:38.590Z,84.57
2022-12-20T09:50:08.905Z,84.49
2022-12-20T09:52:52.739Z,84.40
2022-12-20T09:55:46.270Z,84.46
2022-12-20T09:58:36.853Z,84.48
2022-12-20T10:01:27.757Z,84.40
2022-12-20T10:04:04.035Z,84.45
2022-12-20T10:06:53.763Z,84.40
2022-12-20T10:10:33.389Z,84.53
2022-12-20T10:14:01.199Z,84.43
2022-12-20T10:16:45.809Z,84.47
2022-12-20T10:19:36.907Z,84.52
2022-12-20T10:22:13.729Z,84.23
2022-12-20T10:24:53.419Z,84.36
2022-12-20T10:27:39.220Z,84.14
2022-12-20T10:30:22.144Z,84.24
2022-12-20T10:32:58.909Z,84.15
2022-12-20T10:35:29.474Z,84.23
2022-12-20T10:38:09.194Z,84.26
2022-12-20T10:41:22.233Z,84.21
2022-12-20T10:48:30.303Z,84.26
2022-12-20T10:51:24.293Z,84.17
2022-12-20T10:53:54.121Z,84.13
2022-12-20T10:57:24.192Z,84.18
2022-12-20T11:00:02.965Z,84.32
2022-12-20T11:02:42.310Z,84.24
2022-12-20T11:05:32.735Z,84.36
2022-12-20T11:08:37.688Z,84.35
2022-12-20T11:11:26.184Z,84.36
2022-12-20T11:14:15.021Z,84.47
2022-12-20T11:16:47.649Z,84.45
2022-12-20T11:19:18.684Z,84.44
2022-12-20T11:22:02.859Z,84.23
2022-12-20T11:24:58.252Z,84.29
2022-12-20T11:27:51.309Z,84.25
2022-12-20T11:30:49.825Z,84.36
2022-12-20T11:33:47.601Z,84.31
2022-12-20T11:36:43.295Z,84.46
2022-12-20T11:39:45.475Z,84.45
2022-12-20T11:42:30.261Z,84.47
2022-12-20T11:45:24.168Z,84.56
2022-12-20T11:48:30.390Z,84.39
2022-12-20T11:51:27.266Z,84.40
2022-12-20T11:54:13.127Z,84.44
2022-12-20T11:56:49.544Z,84.53
2022-12-20T11:59:43.851Z,84.46
2022-12-20T12:02:41.563Z,84.25
2022-12-20T12:05:18.224Z,84.05
2022-12-20T12:07:58.205Z,84.43
2022-12-20T12:10:37.270Z,84.23
2022-12-20T12:13:25.554Z,84.12
2022-12-20T12:16:02.280Z,84.27
2022-12-20T12:18:35.646Z,84.30
2022-12-20T12:21:26.327Z,84.35
2022-12-20T12:24:16.271Z,84.49
2022-12-20T12:26:45.985Z,84.34
2022-12-20T12:29:18.991Z,84.49
2022-12-20T12:32:05.265Z,84.06
2022-12-20T12:35:09.416Z,84.31
2022-12-20T12:37:56.201Z,84.24
2022-12-20T12:41:06.983Z,84.14
2022-12-20T12:48:16.363Z,84.37
2022-12-20T12:50:49.903Z,84.30
2022-12-20T12:53:31.256Z,84.30
2022-12-20T12:56:45.151Z,84.43
2022-12-20T12:59:33.639Z,84.32
2022-12-20T13:02:14.709Z,84.15
2022-12-20T13:05:26.288Z,84.24
2022-12-20T13:08:18.180Z,84.27
2022-12-20T13:10:57.135Z,84.16
2022-12-20T13:13:27.999Z,84.28
2022-12-20T13:16:09.962Z,84.14
2022-12-20T13:18:55.821Z,84.20
2022-12-20T13:21:38.470Z,84.15
2022-12-20T13:24:38.554Z,84.22
2022-12-20T13:27:30.044Z,84.11
2022-12-20T13:30:22.479Z,84.25
2022-12-20T13:32:51.596Z,84.17
2022-12-20T13:35:26.563Z,84.11
2022-12-20T13:38:02.581Z,84.28
2022-12-20T13:40:48.444Z,84.16
2022-12-20T13:47:43.143Z,84.24
2022-12-20T13:50:26.940Z,84.28
2022-12-20T13:52:58.008Z,84.23
2022-12-20T13:55:40.147Z,84.22
2022-12-20T13:58:18.728Z,84.17
2022-12-20T14:00:50.823Z,84.15
2022-12-20T14:03:27.172Z,84.12
2022-12-20T14:06:04.528Z,84.15
2022-12-20T14:08:43.129Z,84.22
2022-12-20T14:11:16.601Z,84.13
2022-12-20T14:13:58.456Z,84.00
2022-12-20T14:16:30.039Z,83.91
2022-12-20T14:19:07.420Z,83.92
2022-12-20T14:21:44.574Z,84.06
2022-12-20T14:24:18.573Z,84.21
2022-12-20T14:26:51.875Z,84.25
2022-12-20T14:29:32.117Z,83.84
2022-12-20T14:32:01.231Z,84.18
2022-12-20T14:34:38.080Z,84.04
2022-12-20T14:37:26.333Z,84.02
2022-12-20T14:40:09.674Z,84.04
2022-12-20T14:42:41.501Z,84.12
2022-12-20T14:45:11.967Z,84.13
2022-12-20T14:48:17.064Z,84.10
2022-12-20T14:50:54.411Z,84.08
2022-12-20T14:53:30.571Z,84.05
2022-12-20T14:56:02.437Z,84.00
2022-12-20T14:58:34.254Z,84.16
2022-12-20T15:01:21.841Z,84.06
2022-12-20T15:03:59.960Z,84.17
2022-12-20T15:06:34.263Z,84.11
2022-12-20T15:09:05.679Z,84.08
2022-12-20T15:11:37.412Z,83.93
2022-12-20T15:14:37.587Z,84.23
2022-12-20T15:17:16.203Z,84.08
2022-12-20T15:19:45.856Z,84.02
2022-12-20T15:22:20.661Z,84.19
2022-12-20T15:24:51.922Z,84.19
2022-12-20T15:27:21.631Z,84.08
2022-12-20T15:29:54.898Z,84.05
2022-12-20T15:32:30.113Z,84.01
2022-12-20T15:34:59.747Z,83.95
2022-12-20T15:37:29.333Z,84.09
2022-12-20T15:40:01.722Z,83.97
2022-12-20T15:42:30.946Z,83.94
2022-12-20T15:49:30.749Z,83.96
2022-12-20T15:52:02.662Z,83.85
2022-12-20T15:54:37.767Z,83.87
2022-12-20T15:57:12.384Z,83.86
2022-12-20T16:00:01.538Z,83.94
2022-12-20T16:02:40.938Z,84.06
2022-12-20T16:05:14.207Z,83.92
2022-12-20T16:07:44.163Z,84.12
2022-12-20T16:10:16.122Z,84.18
2022-12-20T16:12:47.626Z,83.96
2022-12-20T16:15:23.597Z,83.94
2022-12-20T16:17:54.612Z,83.91
2022-12-20T16:20:27.950Z,84.01
2022-12-20T16:22:57.447Z,84.07
2022-12-20T16:25:37.302Z,84.06
2022-12-20T16:28:09.054Z,84.10
2022-12-20T16:30:38.157Z,83.99
2022-12-20T16:33:08.848Z,84.12
2022-12-20T16:35:38.514Z,84.07
2022-12-20T16:38:10.704Z,84.15
2022-12-20T16:40:41.119Z,83.89
2022-12-20T16:47:43.352Z,84.03
2022-12-20T16:50:13.156Z,84.14
2022-12-20T16:52:44.236Z,84.16
2022-12-20T16:55:19.307Z,83.97
2022-12-20T16:57:49.608Z,83.97
2022-12-20T17:00:25.597Z,84.10
2022-12-20T17:02:54.905Z,84.25
2022-12-20T17:05:30.437Z,84.19
2022-12-20T17:08:03.199Z,84.24
2022-12-20T17:10:34.488Z,84.35
2022-12-20T17:13:05.012Z,84.56
2022-12-20T17:15:34.508Z,84.08
2022-12-20T17:18:06.932Z,84.23
2022-12-20T17:20:37.071Z,84.10
2022-12-20T17:23:12.307Z,84.21
2022-12-20T17:25:48.744Z,84.31
2022-12-20T17:28:21.178Z,84.26
2022-12-20T17:30:50.920Z,84.06
2022-12-20T17:33:21.869Z,84.22
2022-12-20T17:58:54.132Z,83.96
2022-12-20T18:01:35.869Z,84.04
2022-12-20T18:04:09.713Z,84.10
2022-12-20T18:06:43.714Z,84.17
2022-12-20T18:09:16.168Z,84.08
2022-12-20T18:11:47.173Z,84.09
2022-12-20T18:14:18.013Z,84.17
2022-12-20T18:16:48.715Z,84.22
2022-12-20T18:19:20.944Z,84.16
2022-12-20T18:21:51.332Z,84.32
2022-12-20T18:24:21.862Z,84.31
2022-12-20T18:26:52.371Z,84.32
2022-12-20T18:29:22.594Z,84.34
2022-12-20T18:31:51.703Z,84.27
2022-12-20T18:34:22.893Z,84.09
2022-12-20T18:36:54.145Z,84.22
2022-12-20T18:39:24.538Z,84.22
2022-12-20T18:41:56.095Z,84.26
2022-12-20T18:44:25.735Z,84.19
2022-12-20T18:46:57.718Z,84.21
2022-12-20T18:49:27.988Z,84.30
2022-12-20T18:51:59.997Z,84.21
2022-12-20T18:54:30.738Z,84.33
2022-12-20T18:57:00.668Z,84.13
2022-12-20T18:59:33.101Z,84.19
2022-12-20T19:02:04.624Z,84.01
2022-12-20T19:04:35.113Z,84.37
2022-12-20T19:07:05.396Z,84.26
2022-12-20T19:09:36.352Z,84.40
2022-12-20T19:12:06.849Z,84.28
2022-12-20T19:14:38.618Z,84.25
2022-12-20T19:17:08.513Z,84.22
2022-12-20T19:19:39.997Z,84.24
2022-12-20T19:22:10.618Z,84.16
2022-12-20T19:24:41.439Z,84.21
2022-12-20T19:27:13.599Z,84.24
2022-12-20T19:29:43.405Z,84.27
2022-12-20T19:32:14.918Z,84.30
2022-12-20T19:34:45.038Z,84.16
2022-12-20T19:37:17.078Z,84.22
2022-12-20T19:39:48.494Z,84.09
2022-12-20T19:42:25.132Z,84.13
2022-12-20T19:45:02.585Z,84.20
2022-12-20T19:47:38.347Z,84.12
2022-12-20T19:50:09.627Z,84.16
2022-12-20T19:52:41.002Z,84.18
2022-12-20T19:55:11.053Z,84.16
2022-12-20T19:57:42.076Z,83.99
2022-12-20T20:00:11.942Z,84.20
2022-12-20T20:02:44.242Z,84.12
2022-12-20T20:05:15.738Z,84.13
2022-12-20T20:07:45.385Z,84.10
2022-12-20T20:10:14.558Z,84.06
2022-12-20T20:12:45.575Z,84.13
2022-12-20T20:15:14.710Z,84.06
2022-12-20T20:17:46.012Z,84.05
2022-12-20T20:20:16.986Z,84.01
2022-12-20T20:22:48.541Z,83.93
2022-12-20T20:25:19.295Z,83.97
2022-12-20T20:27:49.512Z,83.94
2022-12-20T20:30:21.009Z,83.92
2022-12-20T20:32:51.457Z,84.00
2022-12-20T20:35:23.944Z,83.86
2022-12-20T20:37:55.759Z,83.79
2022-12-20T20:40:28.450Z,83.76
2022-12-20T20:43:00.131Z,83.72
2022-12-20T20:45:31.018Z,83.91
2022-12-20T20:48:05.689Z,83.70
2022-12-20T20:50:36.982Z,83.81
2022-12-20T20:53:07.595Z,83.71
2022-12-20T20:55:39.904Z,83.81
2022-12-20T20:58:09.106Z,83.76
2022-12-20T21:00:40.595Z,83.79
2022-12-20T21:03:12.511Z,83.73
2022-12-20T21:08:35.385Z,83.69
2022-12-20T21:11:06.623Z,83.68
2022-12-20T21:13:36.636Z,83.78
2022-12-20T21:16:10.197Z,83.76
2022-12-20T21:18:39.695Z,83.68
2022-12-20T21:21:11.430Z,83.68
2022-12-20T21:23:45.612Z,83.54
2022-12-20T21:26:17.340Z,83.73
2022-12-20T21:28:47.866Z,83.71
2022-12-20T21:31:19.764Z,83.78
2022-12-20T21:33:49.702Z,83.76
2022-12-20T21:36:20.325Z,83.76
2022-12-20T21:38:51.874Z,83.75
2022-12-20T21:41:24.915Z,83.70
2022-12-20T21:44:22.904Z,83.64
2022-12-20T21:46:53.485Z,83.62
2022-12-20T21:49:22.937Z,83.66
2022-12-20T21:51:56.761Z,83.61
2022-12-20T21:54:26.029Z,83.66
2022-12-20T21:56:55.011Z,83.77
2022-12-20T21:59:24.518Z,83.73
2022-12-20T22:01:56.189Z,83.74
2022-12-20T22:04:26.146Z,83.73
2022-12-20T22:06:55.313Z,83.60
2022-12-20T22:09:25.201Z,83.71
2022-12-20T22:11:55.557Z,83.72
2022-12-20T22:14:26.078Z,83.68
2022-12-20T22:16:56.274Z,83.76
2022-12-20T22:19:25.460Z,83.81
2022-12-20T22:21:58.212Z,83.56
2022-12-20T22:24:29.153Z,83.75
2022-12-20T22:26:59.538Z,83.77
2022-12-20T22:29:30.702Z,83.71
2022-12-20T22:32:01.170Z,83.67
2022-12-20T22:34:30.446Z,83.58
2022-12-20T22:37:00.131Z,83.83
2022-12-20T22:39:29.219Z,83.65
2022-12-20T22:42:00.616Z,83.74
2022-12-20T22:44:29.958Z,83.60
2022-12-20T22:49:45.663Z,83.68
2022-12-20T22:52:16.041Z,83.79
2022-12-20T22:54:47.487Z,83.85
2022-12-20T22:57:17.246Z,83.89
2022-12-20T22:59:47.568Z,83.74
2022-12-20T23:02:18.395Z,83.76
2022-12-20T23:04:51.205Z,83.79
2022-12-20T23:07:21.640Z,83.65
2022-12-20T23:09:51.137Z,83.76
2022-12-20T23:12:38.929Z,83.75
2022-12-20T23:15:31.050Z,83.81
2022-12-20T23:18:00.023Z,83.74
2022-12-20T23:20:47.750Z,83.98
2022-12-20T23:23:16.711Z,83.75
2022-12-20T23:25:48.296Z,83.91
2022-12-20T23:28:17.294Z,83.84
2022-12-20T23:30:46.235Z,83.82
2022-12-20T23:33:15.573Z,83.86
2022-12-20T23:35:48.433Z,83.76
2022-12-20T23:38:17.847Z,83.69
2022-12-20T23:40:47.161Z,83.58
2022-12-20T23:43:17.423Z,83.55
2022-12-20T23:45:46.588Z,83.50
2022-12-20T23:48:17.934Z,83.60
2022-12-20T23:50:56.363Z,83.45
2022-12-20T23:53:27.575Z,83.53
2022-12-20T23:55:58.094Z,83.65
2022-12-20T23:58:28.272Z,83.55
